Terminal Aerodrome Forecast
Issued by NWS

Home | Current Version | Previous Version | Text Only | Print | Product List | Glossary On
Versions: 1 2 3 4 5 6 7 8 9 10 11 12 13 14 15 16 17 18 19 20
000
FTUS43 KDMX 181139
TAFOTM
TAF
KOTM 181139Z 1812/1912 28004KT P6SM FEW200
     FM190800 VRB03KT 2SM BR FEW100
     FM191100 VRB03KT 1SM BR FEW100=

USA.gov is the U.S. government's official web portal to all federal, state and local government web resources and services.